Pendleton, OR

17:38 PST le 27 février 2017 (GMT -0800)
Fire and Rescue, Court Street | | Change Station

Alt. 1066 ft 45.67 °N, 118.80 °W | Updated 7 seconds ago

Light Snow
Neige légère
34.9 ° F
Paraît 32 ° F
N
3.6
Vent Variable Vent de OSO
Gusts 8.3 mph

Aujourd'hui
Haut(e) -- | Bas -- ° F
--% Risque de précip.
Hier
Haut(e) -- | Bas -- ° F
Precip. -- pouce
Pression 29.70 pouce
Visibilité 1.0 Miles terrestres
Nuages Nuageux 800 ft
Nuageux 4000 ft
Couvert 8500 ft
Refroidissement éolien 32 ° F
Point de rosée 27 ° F
Humidité 73%
Précipitations 0.23 pouce
Profondeur de la couche neigeuse Non disponible.
6:36 AM 5:39 PM
Lune montante, 3% visible
SPECI KPDT 280128Z 23015KT 1SM R25/4500V6000FT -SN BR BKN008 BKN040 OVC085 01/M01 A2970 RMK AO2 PK WND 24026/0121 RAE0055SNB20 P0002 T00061006
Pression 29.70 pouce
Visibilité 1.0 Miles terrestres
Nuages Nuageux 800 ft
Nuageux 4000 ft
Couvert 8500 ft
Refroidissement éolien 32 ° F
Point de rosée 27 ° F
Humidité 73%
Précipitations 0.23 pouce
Profondeur de la couche neigeuse Non disponible.
6:36 AM 5:39 PM
Lune montante, 3% visible
SPECI KPDT 280128Z 23015KT 1SM R25/4500V6000FT -SN BR BKN008 BKN040 OVC085 01/M01 A2970 RMK AO2 PK WND 24026/0121 RAE0055SNB20 P0002 T00061006

Get Your Daily Forecast Email!

Thanks for signing up!

Be on the lookout for a verification email in your inbox.

You'll start receiving the daily forecast at 8 AM.

×

10-Day Weather Forecast

Almanac

Astronomie

Feb. 27, 2017 Lever Coucher
Temps réel
Crépuscule civil
Crépuscule nautique
Crépuscule astronomique
Lune
Durée de lumière visible
Longueur du jour
Tomorrow will be .
, % of the Moon is Illuminated

Extrêmes aujourd'hui

State Highs State Lows

Community

WunderPhotos

Upload Photos

1,962,540 Photos téléchargées !

WunderBlog® & News

Nearby

Qualité de l'air

  Qualité de l'air Indice de la qualité de l'air Polluant
Not available.

Épaisseur de neige

Station Depth Altitude

Activité sismique

Ville Distance Mag. Time & Date
Minimum magnitude displayed is 2.5.

Températures des eaux côtières

Lieu Température

Stations

Stations météo à proximité

Emplacement de la station Température Refroidissement éolien Point de rosée Humidité Vent Precip. Alt. Mise à jour Type
                   

Watches & Warnings

There are currently no watches in effect.